sensor_id;sensor_type;location;lat;lon;timestamp;pressure;altitude;pressure_sealevel;temperature;humidity
7109;BME280;29079;41.930;25.558;2023-04-26T00:02:18;98655.69;;;11.86;100.00
7109;BME280;29079;41.930;25.558;2023-04-26T00:04:51;98653.34;;;11.91;100.00
7109;BME280;29079;41.930;25.558;2023-04-26T00:07:27;98640.34;;;11.96;100.00
7109;BME280;29079;41.930;25.558;2023-04-26T00:10:01;98640.16;;;11.90;100.00
7109;BME280;29079;41.930;25.558;2023-04-26T00:12:34;98637.66;;;11.96;100.00
7109;BME280;29079;41.930;25.558;2023-04-26T00:15:07;98650.00;;;11.89;100.00
7109;BME280;29079;41.930;25.558;2023-04-26T00:17:42;98645.31;;;11.83;100.00
7109;BME280;29079;41.930;25.558;2023-04-26T00:20:15;98640.81;;;11.83;100.00
7109;BME280;29079;41.930;25.558;2023-04-26T00:22:48;98645.47;;;11.73;100.00
7109;BME280;29079;41.930;25.558;2023-04-26T00:25:21;98645.00;;;11.78;100.00
7109;BME280;29079;41.930;25.558;2023-04-26T00:27:54;98646.47;;;11.80;100.00
7109;BME280;29079;41.930;25.558;2023-04-26T00:30:27;98638.78;;;11.77;100.00
7109;BME280;29079;41.930;25.558;2023-04-26T00:33:02;98630.28;;;11.65;100.00
7109;BME280;29079;41.930;25.558;2023-04-26T00:35:36;98629.28;;;11.83;100.00
7109;BME280;29079;41.930;25.558;2023-04-26T00:38:09;98631.50;;;11.96;100.00
7109;BME280;29079;41.930;25.558;2023-04-26T00:40:42;98628.28;;;11.76;100.00
7109;BME280;29079;41.930;25.558;2023-04-26T00:43:15;98622.59;;;11.79;100.00
7109;BME280;29079;41.930;25.558;2023-04-26T00:45:48;98631.13;;;11.74;100.00
7109;BME280;29079;41.930;25.558;2023-04-26T00:48:23;98624.94;;;11.65;100.00
7109;BME280;29079;41.930;25.558;2023-04-26T00:50:57;98629.44;;;11.65;100.00
7109;BME280;29079;41.930;25.558;2023-04-26T00:53:30;98618.09;;;11.79;100.00
7109;BME280;29079;41.930;25.558;2023-04-26T00:56:05;98614.59;;;11.71;100.00
7109;BME280;29079;41.930;25.558;2023-04-26T00:58:38;98622.78;;;11.69;100.00
7109;BME280;29079;41.930;25.558;2023-04-26T01:01:11;98614.72;;;11.53;100.00
7109;BME280;29079;41.930;25.558;2023-04-26T01:03:46;98609.25;;;11.71;100.00
7109;BME280;29079;41.930;25.558;2023-04-26T01:06:19;98609.72;;;11.58;100.00
7109;BME280;29079;41.930;25.558;2023-04-26T01:08:53;98606.88;;;11.51;100.00
7109;BME280;29079;41.930;25.558;2023-04-26T01:11:28;98593.84;;;11.48;100.00
7109;BME280;29079;41.930;25.558;2023-04-26T01:14:02;98601.88;;;11.64;100.00
7109;BME280;29079;41.930;25.558;2023-04-26T01:16:35;98602.06;;;11.55;100.00
7109;BME280;29079;41.930;25.558;2023-04-26T01:19:10;98608.56;;;11.60;100.00
7109;BME280;29079;41.930;25.558;2023-04-26T01:21:44;98602.22;;;11.53;100.00
7109;BME280;29079;41.930;25.558;2023-04-26T01:24:18;98607.84;;;11.50;100.00
7109;BME280;29079;41.930;25.558;2023-04-26T01:26:51;98606.56;;;11.71;100.00
7109;BME280;29079;41.930;25.558;2023-04-26T01:29:24;98610.56;;;11.58;100.00
7109;BME280;29079;41.930;25.558;2023-04-26T01:31:58;98602.03;;;11.63;100.00
7109;BME280;29079;41.930;25.558;2023-04-26T01:34:31;98601.38;;;11.44;100.00
7109;BME280;29079;41.930;25.558;2023-04-26T01:37:05;98593.50;;;11.51;100.00
7109;BME280;29079;41.930;25.558;2023-04-26T01:39:39;98585.34;;;11.69;100.00
7109;BME280;29079;41.930;25.558;2023-04-26T01:42:12;98587.03;;;11.62;100.00
7109;BME280;29079;41.930;25.558;2023-04-26T01:44:45;98591.53;;;11.70;100.00
7109;BME280;29079;41.930;25.558;2023-04-26T01:47:18;98590.84;;;11.67;100.00
7109;BME280;29079;41.930;25.558;2023-04-26T01:49:51;98583.50;;;11.70;100.00
7109;BME280;29079;41.930;25.558;2023-04-26T01:52:24;98592.34;;;11.70;100.00
7109;BME280;29079;41.930;25.558;2023-04-26T01:54:59;98589.19;;;11.75;100.00
7109;BME280;29079;41.930;25.558;2023-04-26T01:57:31;98585.50;;;11.67;100.00
7109;BME280;29079;41.930;25.558;2023-04-26T02:00:05;98581.31;;;11.57;100.00
7109;BME280;29079;41.930;25.558;2023-04-26T02:02:39;98582.00;;;11.50;100.00
7109;BME280;29079;41.930;25.558;2023-04-26T02:05:12;98581.16;;;11.75;100.00
7109;BME280;29079;41.930;25.558;2023-04-26T02:07:46;98593.84;;;11.48;100.00
7109;BME280;29079;41.930;25.558;2023-04-26T02:10:20;98586.69;;;11.57;100.00
7109;BME280;29079;41.930;25.558;2023-04-26T02:12:53;98593.22;;;11.71;100.00
7109;BME280;29079;41.930;25.558;2023-04-26T02:15:26;98583.34;;;11.71;100.00
7109;BME280;29079;41.930;25.558;2023-04-26T02:17:59;98585.84;;;11.64;100.00
7109;BME280;29079;41.930;25.558;2023-04-26T02:20:32;98588.50;;;11.48;100.00
7109;BME280;29079;41.930;25.558;2023-04-26T02:23:05;98593.19;;;11.54;100.00
7109;BME280;29079;41.930;25.558;2023-04-26T02:25:39;98597.00;;;11.52;100.00
7109;BME280;29079;41.930;25.558;2023-04-26T02:28:13;98591.19;;;11.56;100.00
7109;BME280;29079;41.930;25.558;2023-04-26T02:30:46;98601.53;;;11.51;100.00
7109;BME280;29079;41.930;25.558;2023-04-26T02:33:20;98597.50;;;11.39;100.00
7109;BME280;29079;41.930;25.558;2023-04-26T02:35:53;98598.50;;;11.38;100.00
7109;BME280;29079;41.930;25.558;2023-04-26T02:38:26;98596.69;;;11.63;100.00
7109;BME280;29079;41.930;25.558;2023-04-26T02:41:01;98593.03;;;11.80;100.00
7109;BME280;29079;41.930;25.558;2023-04-26T02:43:34;98585.03;;;11.72;100.00
7109;BME280;29079;41.930;25.558;2023-04-26T02:46:07;98585.50;;;12.25;100.00
7109;BME280;29079;41.930;25.558;2023-04-26T02:48:40;98594.88;;;12.05;100.00
7109;BME280;29079;41.930;25.558;2023-04-26T02:51:13;98598.75;;;11.94;100.00
7109;BME280;29079;41.930;25.558;2023-04-26T02:53:46;98599.56;;;12.27;100.00
7109;BME280;29079;41.930;25.558;2023-04-26T02:56:21;98603.69;;;12.30;100.00
7109;BME280;29079;41.930;25.558;2023-04-26T02:58:54;98602.41;;;11.93;100.00
7109;BME280;29079;41.930;25.558;2023-04-26T03:01:27;98607.41;;;12.21;100.00
7109;BME280;29079;41.930;25.558;2023-04-26T03:03:59;98613.28;;;12.16;100.00
7109;BME280;29079;41.930;25.558;2023-04-26T03:06:33;98621.63;;;11.96;100.00
7109;BME280;29079;41.930;25.558;2023-04-26T03:09:06;98617.91;;;11.89;100.00
7109;BME280;29079;41.930;25.558;2023-04-26T03:11:40;98619.13;;;12.03;100.00
7109;BME280;29079;41.930;25.558;2023-04-26T03:14:13;98631.28;;;12.47;100.00
7109;BME280;29079;41.930;25.558;2023-04-26T03:16:46;98627.81;;;11.97;100.00
7109;BME280;29079;41.930;25.558;2023-04-26T03:19:19;98626.31;;;12.19;100.00
7109;BME280;29079;41.930;25.558;2023-04-26T03:21:52;98626.94;;;11.80;100.00
7109;BME280;29079;41.930;25.558;2023-04-26T03:24:25;98622.59;;;11.79;100.00
7109;BME280;29079;41.930;25.558;2023-04-26T03:26:59;98624.28;;;11.96;100.00
7109;BME280;29079;41.930;25.558;2023-04-26T03:29:32;98629.31;;;11.99;100.00
7109;BME280;29079;41.930;25.558;2023-04-26T03:32:06;98633.50;;;12.10;100.00
7109;BME280;29079;41.930;25.558;2023-04-26T03:34:39;98632.31;;;11.88;100.00
7109;BME280;29079;41.930;25.558;2023-04-26T03:37:12;98631.50;;;12.04;100.00
7109;BME280;29079;41.930;25.558;2023-04-26T03:39:45;98629.59;;;11.72;100.00
7109;BME280;29079;41.930;25.558;2023-04-26T03:42:20;98632.28;;;11.80;100.00
7109;BME280;29079;41.930;25.558;2023-04-26T03:44:53;98626.63;;;12.24;100.00
7109;BME280;29079;41.930;25.558;2023-04-26T03:47:26;98630.47;;;12.30;100.00
7109;BME280;29079;41.930;25.558;2023-04-26T03:49:59;98632.09;;;11.73;100.00
7109;BME280;29079;41.930;25.558;2023-04-26T03:52:32;98625.25;;;11.79;100.00
7109;BME280;29079;41.930;25.558;2023-04-26T03:55:06;98630.44;;;11.80;100.00
7109;BME280;29079;41.930;25.558;2023-04-26T03:57:42;98622.22;;;11.57;100.00
7109;BME280;29079;41.930;25.558;2023-04-26T04:00:15;98630.63;;;11.87;100.00
7109;BME280;29079;41.930;25.558;2023-04-26T04:02:47;98631.63;;;11.78;100.00
7109;BME280;29079;41.930;25.558;2023-04-26T04:05:20;98629.56;;;11.47;100.00
7109;BME280;29079;41.930;25.558;2023-04-26T04:07:54;98628.56;;;11.40;100.00
7109;BME280;29079;41.930;25.558;2023-04-26T04:10:27;98621.56;;;11.47;100.00
7109;BME280;29079;41.930;25.558;2023-04-26T04:13:02;98627.41;;;11.50;100.00
7109;BME280;29079;41.930;25.558;2023-04-26T04:15:35;98628.44;;;11.58;100.00
7109;BME280;29079;41.930;25.558;2023-04-26T04:18:08;98618.25;;;11.53;100.00
7109;BME280;29079;41.930;25.558;2023-04-26T04:20:41;98616.88;;;11.57;100.00
7109;BME280;29079;41.930;25.558;2023-04-26T04:23:14;98620.91;;;11.61;100.00
7109;BME280;29079;41.930;25.558;2023-04-26T04:25:47;98624.63;;;11.85;100.00
7109;BME280;29079;41.930;25.558;2023-04-26T04:28:23;98639.16;;;12.15;100.00
7109;BME280;29079;41.930;25.558;2023-04-26T04:30:57;98634.47;;;12.34;100.00
7109;BME280;29079;41.930;25.558;2023-04-26T04:33:31;98635.84;;;11.97;100.00
7109;BME280;29079;41.930;25.558;2023-04-26T04:36:05;98630.78;;;11.77;100.00
7109;BME280;29079;41.930;25.558;2023-04-26T04:38:39;98633.78;;;11.66;100.00
7109;BME280;29079;41.930;25.558;2023-04-26T04:41:12;98631.44;;;11.71;100.00
7109;BME280;29079;41.930;25.558;2023-04-26T04:43:46;98639.50;;;11.96;100.00
7109;BME280;29079;41.930;25.558;2023-04-26T04:46:19;98632.66;;;11.85;100.00
7109;BME280;29079;41.930;25.558;2023-04-26T04:48:53;98635.97;;;11.71;100.00
7109;BME280;29079;41.930;25.558;2023-04-26T04:51:26;98632.97;;;12.07;100.00
7109;BME280;29079;41.930;25.558;2023-04-26T04:54:07;98628.81;;;12.12;100.00
7109;BME280;29079;41.930;25.558;2023-04-26T04:56:40;98634.81;;;11.81;100.00
7109;BME280;29079;41.930;25.558;2023-04-26T04:59:15;98634.34;;;12.02;100.00
7109;BME280;29079;41.930;25.558;2023-04-26T05:01:48;98624.81;;;12.00;100.00
7109;BME280;29079;41.930;25.558;2023-04-26T05:04:21;98636.19;;;12.10;100.00
7109;BME280;29079;41.930;25.558;2023-04-26T05:06:55;98647.03;;;12.17;100.00
7109;BME280;29079;41.930;25.558;2023-04-26T05:09:28;98638.00;;;12.26;100.00
7109;BME280;29079;41.930;25.558;2023-04-26T05:12:01;98632.66;;;12.34;100.00
7109;BME280;29079;41.930;25.558;2023-04-26T05:14:35;98630.41;;;12.54;100.00
7109;BME280;29079;41.930;25.558;2023-04-26T05:17:09;98628.81;;;12.21;100.00
7109;BME280;29079;41.930;25.558;2023-04-26T05:19:43;98612.75;;;12.12;100.00
7109;BME280;29079;41.930;25.558;2023-04-26T05:22:16;98626.94;;;12.38;100.00
7109;BME280;29079;41.930;25.558;2023-04-26T05:24:51;98623.25;;;12.47;100.00
7109;BME280;29079;41.930;25.558;2023-04-26T05:27:24;98627.06;;;12.61;100.00
7109;BME280;29079;41.930;25.558;2023-04-26T05:30:00;98632.53;;;12.76;100.00
7109;BME280;29079;41.930;25.558;2023-04-26T05:32:33;98630.34;;;12.79;100.00
7109;BME280;29079;41.930;25.558;2023-04-26T05:35:07;98635.44;;;12.58;100.00
7109;BME280;29079;41.930;25.558;2023-04-26T05:37:40;98635.63;;;12.40;100.00
7109;BME280;29079;41.930;25.558;2023-04-26T05:40:13;98637.97;;;12.51;100.00
7109;BME280;29079;41.930;25.558;2023-04-26T05:42:47;98645.69;;;12.29;100.00
7109;BME280;29079;41.930;25.558;2023-04-26T05:45:21;98640.00;;;12.32;100.00
7109;BME280;29079;41.930;25.558;2023-04-26T05:47:54;98639.13;;;12.48;100.00
7109;BME280;29079;41.930;25.558;2023-04-26T05:50:27;98637.28;;;12.49;100.00
7109;BME280;29079;41.930;25.558;2023-04-26T05:53:00;98640.50;;;12.92;100.00
7109;BME280;29079;41.930;25.558;2023-04-26T05:55:33;98637.81;;;13.00;100.00
7109;BME280;29079;41.930;25.558;2023-04-26T05:58:06;98637.78;;;12.61;100.00
7109;BME280;29079;41.930;25.558;2023-04-26T06:00:40;98645.34;;;12.41;100.00
7109;BME280;29079;41.930;25.558;2023-04-26T06:03:13;98638.13;;;12.49;100.00
7109;BME280;29079;41.930;25.558;2023-04-26T06:05:47;98639.63;;;12.52;100.00
7109;BME280;29079;41.930;25.558;2023-04-26T06:08:20;98632.03;;;12.80;100.00
7109;BME280;29079;41.930;25.558;2023-04-26T06:10:53;98626.78;;;12.95;100.00
7109;BME280;29079;41.930;25.558;2023-04-26T06:13:26;98629.31;;;12.88;100.00
7109;BME280;29079;41.930;25.558;2023-04-26T06:16:00;98627.06;;;13.09;100.00
7109;BME280;29079;41.930;25.558;2023-04-26T06:18:33;98627.72;;;13.11;100.00
7109;BME280;29079;41.930;25.558;2023-04-26T06:21:07;98630.56;;;13.09;100.00
7109;BME280;29079;41.930;25.558;2023-04-26T06:23:40;98632.25;;;13.10;100.00
7109;BME280;29079;41.930;25.558;2023-04-26T06:26:13;98625.41;;;12.99;100.00
7109;BME280;29079;41.930;25.558;2023-04-26T06:28:46;98627.44;;;12.97;100.00
7109;BME280;29079;41.930;25.558;2023-04-26T06:31:20;98620.91;;;13.31;99.04
7109;BME280;29079;41.930;25.558;2023-04-26T06:33:53;98627.69;;;13.50;97.83
7109;BME280;29079;41.930;25.558;2023-04-26T06:36:27;98625.38;;;13.70;95.28
7109;BME280;29079;41.930;25.558;2023-04-26T06:39:00;98625.09;;;13.65;94.10
7109;BME280;29079;41.930;25.558;2023-04-26T06:41:33;98625.09;;;13.65;93.12
7109;BME280;29079;41.930;25.558;2023-04-26T06:44:06;98631.19;;;13.19;93.26
7109;BME280;29079;41.930;25.558;2023-04-26T06:46:40;98637.44;;;13.12;91.82
7109;BME280;29079;41.930;25.558;2023-04-26T06:49:14;98638.78;;;13.07;91.81
7109;BME280;29079;41.930;25.558;2023-04-26T06:51:47;98636.81;;;13.33;93.76
7109;BME280;29079;41.930;25.558;2023-04-26T06:54:20;98638.06;;;13.76;91.91
7109;BME280;29079;41.930;25.558;2023-04-26T06:56:53;98636.34;;;13.84;91.67
7109;BME280;29079;41.930;25.558;2023-04-26T06:59:26;98632.44;;;13.71;92.89
7109;BME280;29079;41.930;25.558;2023-04-26T07:02:00;98635.09;;;13.71;90.61
7109;BME280;29079;41.930;25.558;2023-04-26T07:04:33;98636.06;;;13.79;90.96
7109;BME280;29079;41.930;25.558;2023-04-26T07:07:07;98641.00;;;13.90;90.22
7109;BME280;29079;41.930;25.558;2023-04-26T07:09:43;98644.50;;;13.67;88.19
7109;BME280;29079;41.930;25.558;2023-04-26T07:12:16;98639.09;;;13.75;90.52
7109;BME280;29079;41.930;25.558;2023-04-26T07:14:49;98639.56;;;13.56;88.98
7109;BME280;29079;41.930;25.558;2023-04-26T07:17:24;98638.69;;;13.64;90.05
7109;BME280;29079;41.930;25.558;2023-04-26T07:19:57;98631.75;;;13.69;90.70
7109;BME280;29079;41.930;25.558;2023-04-26T07:22:30;98633.78;;;13.67;88.25
7109;BME280;29079;41.930;25.558;2023-04-26T07:25:03;98630.16;;;13.60;89.98
7109;BME280;29079;41.930;25.558;2023-04-26T07:27:36;98632.88;;;13.75;91.06
7109;BME280;29079;41.930;25.558;2023-04-26T07:30:09;98629.03;;;13.78;90.42
7109;BME280;29079;41.930;25.558;2023-04-26T07:32:44;98625.38;;;13.70;90.40
7109;BME280;29079;41.930;25.558;2023-04-26T07:35:17;98635.09;;;13.71;89.81
7109;BME280;29079;41.930;25.558;2023-04-26T07:37:50;98630.47;;;13.88;91.48
7109;BME280;29079;41.930;25.558;2023-04-26T07:40:23;98632.78;;;13.68;92.61
7109;BME280;29079;41.930;25.558;2023-04-26T07:42:56;98632.47;;;13.86;92.18
7109;BME280;29079;41.930;25.558;2023-04-26T07:45:29;98635.31;;;14.08;91.73
7109;BME280;29079;41.930;25.558;2023-04-26T07:48:05;98636.97;;;14.32;91.48
7109;BME280;29079;41.930;25.558;2023-04-26T07:50:38;98638.31;;;14.13;89.73
7109;BME280;29079;41.930;25.558;2023-04-26T07:53:11;98645.38;;;14.29;89.45
7109;BME280;29079;41.930;25.558;2023-04-26T07:55:44;98646.06;;;14.61;89.78
7109;BME280;29079;41.930;25.558;2023-04-26T07:58:17;98640.63;;;14.69;86.21
7109;BME280;29079;41.930;25.558;2023-04-26T08:00:51;98633.13;;;14.79;87.45
7109;BME280;29079;41.930;25.558;2023-04-26T08:03:27;98634.72;;;14.89;86.20
7109;BME280;29079;41.930;25.558;2023-04-26T08:06:00;98637.28;;;14.97;84.21
7109;BME280;29079;41.930;25.558;2023-04-26T08:08:35;98633.88;;;15.03;83.01
7109;BME280;29079;41.930;25.558;2023-04-26T08:11:13;98630.69;;;15.14;81.93
7109;BME280;29079;41.930;25.558;2023-04-26T08:13:46;98641.94;;;15.03;83.17
7109;BME280;29079;41.930;25.558;2023-04-26T08:16:18;98633.50;;;15.06;84.20
7109;BME280;29079;41.930;25.558;2023-04-26T08:18:53;98634.03;;;15.17;83.11
7109;BME280;29079;41.930;25.558;2023-04-26T08:21:26;98641.19;;;15.09;78.58
7109;BME280;29079;41.930;25.558;2023-04-26T08:23:59;98643.31;;;14.99;78.98
7109;BME280;29079;41.930;25.558;2023-04-26T08:26:32;98646.81;;;15.14;78.04
7109;BME280;29079;41.930;25.558;2023-04-26T08:29:05;98630.72;;;14.85;79.44
7109;BME280;29079;41.930;25.558;2023-04-26T08:31:39;98630.25;;;15.11;78.35
7109;BME280;29079;41.930;25.558;2023-04-26T08:34:14;98636.97;;;15.37;77.41
7109;BME280;29079;41.930;25.558;2023-04-26T08:36:47;98636.16;;;15.21;79.53
7109;BME280;29079;41.930;25.558;2023-04-26T08:39:20;98620.38;;;15.33;80.87
7109;BME280;29079;41.930;25.558;2023-04-26T08:41:53;98627.38;;;15.12;80.53
7109;BME280;29079;41.930;25.558;2023-04-26T08:44:26;98627.75;;;14.79;80.84
7109;BME280;29079;41.930;25.558;2023-04-26T08:47:01;98621.34;;;14.95;81.99
7109;BME280;29079;41.930;25.558;2023-04-26T08:49:38;98614.88;;;14.60;81.46
7109;BME280;29079;41.930;25.558;2023-04-26T08:52:13;98623.50;;;14.70;81.02
7109;BME280;29079;41.930;25.558;2023-04-26T08:54:53;98623.50;;;14.85;83.80
7109;BME280;29079;41.930;25.558;2023-04-26T08:57:26;98621.72;;;15.07;80.05
7109;BME280;29079;41.930;25.558;2023-04-26T08:59:59;98625.31;;;15.14;78.97
7109;BME280;29079;41.930;25.558;2023-04-26T09:02:36;98624.06;;;15.32;76.51
7109;BME280;29079;41.930;25.558;2023-04-26T09:05:11;98617.09;;;15.38;75.92
7109;BME280;29079;41.930;25.558;2023-04-26T09:07:45;98617.22;;;15.66;78.03
7109;BME280;29079;41.930;25.558;2023-04-26T09:10:19;98611.44;;;15.47;77.92
7109;BME280;29079;41.930;25.558;2023-04-26T09:12:52;98617.97;;;15.38;78.04
7109;BME280;29079;41.930;25.558;2023-04-26T09:15:26;98613.31;;;15.47;77.56
7109;BME280;29079;41.930;25.558;2023-04-26T09:21:00;98616.59;;;15.86;77.32
7109;BME280;29079;41.930;25.558;2023-04-26T09:23:33;98613.72;;;15.65;79.08
7109;BME280;29079;41.930;25.558;2023-04-26T09:26:20;98609.44;;;15.35;74.20
7109;BME280;29079;41.930;25.558;2023-04-26T09:31:41;98615.38;;;15.88;74.22
7109;BME280;29079;41.930;25.558;2023-04-26T09:34:14;98612.25;;;16.06;72.20
7109;BME280;29079;41.930;25.558;2023-04-26T09:36:49;98603.03;;;15.94;70.57
7109;BME280;29079;41.930;25.558;2023-04-26T09:39:29;98605.13;;;15.98;70.91
7109;BME280;29079;41.930;25.558;2023-04-26T09:42:03;98596.13;;;15.70;71.07
7109;BME280;29079;41.930;25.558;2023-04-26T09:44:36;98593.13;;;15.58;74.26
7109;BME280;29079;41.930;25.558;2023-04-26T09:47:10;98586.34;;;15.62;76.87
7109;BME280;29079;41.930;25.558;2023-04-26T09:49:44;98585.84;;;15.52;73.99
7109;BME280;29079;41.930;25.558;2023-04-26T09:52:20;98574.69;;;15.55;71.91
7109;BME280;29079;41.930;25.558;2023-04-26T09:54:53;98571.56;;;15.51;73.77
7109;BME280;29079;41.930;25.558;2023-04-26T09:57:28;98576.50;;;15.69;75.23
7109;BME280;29079;41.930;25.558;2023-04-26T10:00:01;98570.25;;;15.83;75.21
7109;BME280;29079;41.930;25.558;2023-04-26T10:02:41;98566.53;;;15.84;72.98
7109;BME280;29079;41.930;25.558;2023-04-26T10:05:14;98566.13;;;15.44;70.22
7109;BME280;29079;41.930;25.558;2023-04-26T10:07:49;98563.94;;;15.76;71.38
7109;BME280;29079;41.930;25.558;2023-04-26T10:10:22;98564.47;;;15.87;70.55
7109;BME280;29079;41.930;25.558;2023-04-26T10:12:56;98565.34;;;15.94;74.66
7109;BME280;29079;41.930;25.558;2023-04-26T10:15:28;98571.06;;;15.84;69.06
7109;BME280;29079;41.930;25.558;2023-04-26T10:18:02;98572.81;;;15.77;69.23
7109;BME280;29079;41.930;25.558;2023-04-26T10:20:37;98566.72;;;16.11;78.66
7109;BME280;29079;41.930;25.558;2023-04-26T10:23:15;98566.63;;;15.98;70.92
7109;BME280;29079;41.930;25.558;2023-04-26T10:25:51;98561.25;;;15.98;74.15
7109;BME280;29079;41.930;25.558;2023-04-26T10:31:12;98561.81;;;16.15;67.20
7109;BME280;29079;41.930;25.558;2023-04-26T10:33:45;98557.19;;;16.09;68.16
7109;BME280;29079;41.930;25.558;2023-04-26T10:39:30;98566.88;;;16.03;67.90
7109;BME280;29079;41.930;25.558;2023-04-26T10:42:22;98572.91;;;16.05;69.10
7109;BME280;29079;41.930;25.558;2023-04-26T10:44:57;98575.41;;;16.07;68.39
7109;BME280;29079;41.930;25.558;2023-04-26T10:47:31;98573.31;;;16.09;67.91
7109;BME280;29079;41.930;25.558;2023-04-26T10:50:05;98575.63;;;16.12;68.42
7109;BME280;29079;41.930;25.558;2023-04-26T10:53:03;98575.09;;;15.95;68.91
7109;BME280;29079;41.930;25.558;2023-04-26T10:55:39;98576.53;;;15.97;69.19
7109;BME280;29079;41.930;25.558;2023-04-26T11:01:04;98579.19;;;15.91;71.63
7109;BME280;29079;41.930;25.558;2023-04-26T11:03:38;98592.50;;;15.77;71.01
7109;BME280;29079;41.930;25.558;2023-04-26T11:06:12;98589.13;;;15.69;72.73
7109;BME280;29079;41.930;25.558;2023-04-26T11:08:48;98593.91;;;15.73;74.04
7109;BME280;29079;41.930;25.558;2023-04-26T11:11:25;98590.31;;;15.66;75.91
7109;BME280;29079;41.930;25.558;2023-04-26T11:14:00;98604.03;;;15.49;76.34
7109;BME280;29079;41.930;25.558;2023-04-26T11:16:33;98603.75;;;15.44;78.01
7109;BME280;29079;41.930;25.558;2023-04-26T11:19:06;98597.84;;;14.83;76.33
7109;BME280;29079;41.930;25.558;2023-04-26T11:21:41;98600.91;;;14.65;78.64
7109;BME280;29079;41.930;25.558;2023-04-26T11:24:14;98596.81;;;14.54;81.40
7109;BME280;29079;41.930;25.558;2023-04-26T11:26:51;98591.53;;;14.60;82.22
7109;BME280;29079;41.930;25.558;2023-04-26T11:29:24;98589.97;;;14.36;83.27
7109;BME280;29079;41.930;25.558;2023-04-26T11:31:57;98595.38;;;14.13;82.75
7109;BME280;29079;41.930;25.558;2023-04-26T11:34:31;98589.09;;;13.83;84.11
7109;BME280;29079;41.930;25.558;2023-04-26T11:37:05;98589.16;;;13.74;85.01
7109;BME280;29079;41.930;25.558;2023-04-26T11:39:38;98588.38;;;13.66;85.22
7109;BME280;29079;41.930;25.558;2023-04-26T11:42:13;98593.38;;;13.46;86.29
7109;BME280;29079;41.930;25.558;2023-04-26T11:44:49;98582.13;;;13.73;87.72
7109;BME280;29079;41.930;25.558;2023-04-26T11:47:22;98588.63;;;13.56;87.85
7109;BME280;29079;41.930;25.558;2023-04-26T11:49:56;98580.22;;;13.59;88.67
7109;BME280;29079;41.930;25.558;2023-04-26T11:52:29;98585.06;;;13.40;86.26
7109;BME280;29079;41.930;25.558;2023-04-26T11:55:03;98580.72;;;13.39;87.75
7109;BME280;29079;41.930;25.558;2023-04-26T11:57:38;98583.41;;;13.31;86.10
7109;BME280;29079;41.930;25.558;2023-04-26T12:00:11;98569.09;;;13.70;86.08
7109;BME280;29079;41.930;25.558;2023-04-26T12:02:45;98575.69;;;13.36;88.11
7109;BME280;29079;41.930;25.558;2023-04-26T12:05:22;98571.03;;;13.30;89.37
7109;BME280;29079;41.930;25.558;2023-04-26T12:07:56;98571.72;;;13.24;87.45
7109;BME280;29079;41.930;25.558;2023-04-26T12:10:31;98565.53;;;13.23;88.55
7109;BME280;29079;41.930;25.558;2023-04-26T12:13:05;98572.19;;;13.04;91.12
7109;BME280;29079;41.930;25.558;2023-04-26T12:15:38;98573.91;;;12.89;93.66
7109;BME280;29079;41.930;25.558;2023-04-26T12:18:11;98575.06;;;12.95;93.51
7109;BME280;29079;41.930;25.558;2023-04-26T12:20:44;98573.53;;;13.00;94.60
7109;BME280;29079;41.930;25.558;2023-04-26T12:23:18;98568.72;;;12.96;95.68
7109;BME280;29079;41.930;25.558;2023-04-26T12:25:52;98572.56;;;12.93;97.40
7109;BME280;29079;41.930;25.558;2023-04-26T12:28:27;98587.63;;;12.94;97.15
7109;BME280;29079;41.930;25.558;2023-04-26T12:31:00;98587.31;;;12.81;98.36
7109;BME280;29079;41.930;25.558;2023-04-26T12:33:34;98591.41;;;12.68;100.00
7109;BME280;29079;41.930;25.558;2023-04-26T12:36:09;98593.03;;;13.17;100.00
7109;BME280;29079;41.930;25.558;2023-04-26T12:38:43;98600.13;;;13.02;100.00
7109;BME280;29079;41.930;25.558;2023-04-26T12:41:16;98613.88;;;12.59;100.00
7109;BME280;29079;41.930;25.558;2023-04-26T12:43:50;98608.81;;;12.56;100.00
7109;BME280;29079;41.930;25.558;2023-04-26T12:46:23;98628.78;;;12.45;100.00
7109;BME280;29079;41.930;25.558;2023-04-26T12:48:57;98627.59;;;12.31;100.00
7109;BME280;29079;41.930;25.558;2023-04-26T12:51:30;98633.47;;;12.35;100.00
7109;BME280;29079;41.930;25.558;2023-04-26T12:54:04;98640.16;;;12.39;100.00
7109;BME280;29079;41.930;25.558;2023-04-26T12:56:37;98642.00;;;12.30;100.00
7109;BME280;29079;41.930;25.558;2023-04-26T12:59:15;98649.88;;;12.24;100.00
7109;BME280;29079;41.930;25.558;2023-04-26T13:01:48;98642.19;;;12.21;100.00
7109;BME280;29079;41.930;25.558;2023-04-26T13:04:21;98649.34;;;12.28;100.00
7109;BME280;29079;41.930;25.558;2023-04-26T13:06:55;98659.72;;;12.40;100.00
7109;BME280;29079;41.930;25.558;2023-04-26T13:09:28;98656.38;;;12.21;100.00
7109;BME280;29079;41.930;25.558;2023-04-26T13:12:01;98655.91;;;12.26;100.00
7109;BME280;29079;41.930;25.558;2023-04-26T13:14:35;98657.03;;;12.48;100.00
7109;BME280;29079;41.930;25.558;2023-04-26T13:17:09;98653.97;;;12.67;100.00
7109;BME280;29079;41.930;25.558;2023-04-26T13:19:42;98652.03;;;12.28;100.00
7109;BME280;29079;41.930;25.558;2023-04-26T13:22:15;98667.25;;;12.19;100.00
7109;BME280;29079;41.930;25.558;2023-04-26T13:24:50;98676.59;;;12.15;100.00
7109;BME280;29079;41.930;25.558;2023-04-26T13:27:23;98677.44;;;12.08;100.00
7109;BME280;29079;41.930;25.558;2023-04-26T13:29:59;98671.94;;;12.26;100.00
7109;BME280;29079;41.930;25.558;2023-04-26T13:32:33;98665.09;;;12.15;100.00
7109;BME280;29079;41.930;25.558;2023-04-26T13:35:07;98666.44;;;12.02;100.00
7109;BME280;29079;41.930;25.558;2023-04-26T13:37:40;98670.25;;;12.16;100.00
7109;BME280;29079;41.930;25.558;2023-04-26T13:40:14;98679.81;;;12.19;100.00
7109;BME280;29079;41.930;25.558;2023-04-26T13:42:47;98683.78;;;12.31;100.00
7109;BME280;29079;41.930;25.558;2023-04-26T13:45:22;98677.78;;;12.29;100.00